Time;durP1;ratioP1;P1;durP2;ratioP2;P2;SDS_P1;SDS_P2;PMS_P1;PMS_P2;Temp;Humidity;BMP_temperature;BMP_pressure;BME280_temperature;BME280_humidity;BME280_pressure;Samples;Min_cycle;Max_cycle;Signal;HPM_P1;HPM_P2
2021/03/01 00:00:14;;;;;;;51.90;10.55;;;;;;;-0.89;83.36;101435.60;1706144;83;21376;-45
2021/03/01 00:02:42;;;;;;;34.88;10.63;;;;;;;-0.92;83.38;101436.73;1706114;82;21186;-45
2021/03/01 00:05:13;;;;;;;68.17;10.28;;;;;;;-0.96;83.47;101438.69;1706237;84;20960;-47
2021/03/01 00:07:42;;;;;;;44.98;10.20;;;;;;;-0.98;83.59;101440.70;1706254;83;21469;-45
2021/03/01 00:10:11;;;;;;;37.35;11.03;;;;;;;-1.00;83.70;101439.35;1706235;83;20947;-43
2021/03/01 00:12:41;;;;;;;66.97;12.10;;;;;;;-1.04;83.81;101436.20;1706275;83;20955;-43
2021/03/01 00:15:12;;;;;;;46.68;11.05;;;;;;;-1.06;83.93;101439.09;1706085;83;20940;-52
2021/03/01 00:17:40;;;;;;;51.33;10.75;;;;;;;-1.08;83.98;101439.42;1706211;84;21114;-44
2021/03/01 00:20:10;;;;;;;59.45;12.33;;;;;;;-1.09;84.07;101439.80;1706210;84;21039;-45
2021/03/01 00:22:40;;;;;;;46.25;10.32;;;;;;;-1.10;84.17;101441.02;1706217;83;21007;-45
2021/03/01 00:25:10;;;;;;;48.25;10.00;;;;;;;-1.13;84.31;101447.24;1706147;82;21276;-44
2021/03/01 00:27:38;;;;;;;73.80;10.50;;;;;;;-1.10;84.47;101441.02;1706129;84;21080;-44
2021/03/01 00:30:08;;;;;;;51.55;10.60;;;;;;;-1.09;84.42;101444.89;1706230;83;21019;-45
2021/03/01 00:32:36;;;;;;;44.25;12.40;;;;;;;-1.09;84.42;101441.49;1706093;84;21034;-43
2021/03/01 00:35:08;;;;;;;51.18;10.15;;;;;;;-1.10;84.42;101444.42;1706220;83;21158;-45
2021/03/01 00:37:37;;;;;;;30.27;10.35;;;;;;;-1.11;84.44;101448.18;1706223;84;21386;-45
2021/03/01 00:40:06;;;;;;;38.75;10.65;;;;;;;-1.13;84.50;101445.97;1706127;82;21619;-45
2021/03/01 00:42:34;;;;;;;68.52;10.50;;;;;;;-1.17;84.57;101449.62;1706122;84;21157;-44
2021/03/01 00:45:05;;;;;;;45.73;9.98;;;;;;;-1.19;84.65;101448.67;1706112;84;20952;-44
2021/03/01 00:47:33;;;;;;;28.02;8.85;;;;;;;-1.19;84.69;101452.91;1706300;83;21213;-43
2021/03/01 00:50:01;;;;;;;42.93;9.58;;;;;;;-1.23;84.78;101456.97;1706220;83;21333;-44
2021/03/01 00:52:29;;;;;;;22.45;9.48;;;;;;;-1.24;84.92;101459.04;1706180;84;21026;-45
2021/03/01 00:54:59;;;;;;;39.48;8.98;;;;;;;-1.25;84.96;101463.66;1706107;82;21011;-42
2021/03/01 00:57:27;;;;;;;30.02;9.55;;;;;;;-1.26;85.01;101467.00;1706000;82;21043;-45
2021/03/01 00:59:55;;;;;;;31.45;9.10;;;;;;;-1.27;85.07;101465.25;1706179;82;20937;-44
2021/03/01 01:02:23;;;;;;;29.07;9.60;;;;;;;-1.29;85.17;101470.67;1706227;83;21386;-45
2021/03/01 01:04:53;;;;;;;37.50;10.05;;;;;;;-1.30;85.22;101468.92;1704249;83;21608;-44
2021/03/01 01:07:22;;;;;;;31.30;9.53;;;;;;;-1.32;85.29;101471.38;1706152;84;21580;-46
2021/03/01 01:09:50;;;;;;;34.60;9.60;;;;;;;-1.32;85.38;101475.61;1706129;83;20951;-46
2021/03/01 01:12:18;;;;;;;29.30;9.23;;;;;;;-1.34;85.47;101475.94;1706325;82;21497;-43
2021/03/01 01:14:46;;;;;;;23.30;10.03;;;;;;;-1.35;85.50;101469.12;1706200;84;21385;-44
2021/03/01 01:17:14;;;;;;;22.95;10.05;;;;;;;-1.34;85.57;101474.67;1706260;84;21237;-45
2021/03/01 01:19:42;;;;;;;36.58;10.03;;;;;;;-1.37;85.63;101475.80;1706263;84;21007;-47
2021/03/01 01:22:11;;;;;;;49.73;9.55;;;;;;;-1.37;85.69;101471.99;1706301;82;21062;-45
2021/03/01 01:24:39;;;;;;;65.97;10.23;;;;;;;-1.35;85.67;101476.33;1706374;84;20963;-45
2021/03/01 01:27:07;;;;;;;65.80;10.72;;;;;;;-1.35;85.70;101476.74;1706350;82;21400;-42
2021/03/01 01:29:35;;;;;;;80.10;11.43;;;;;;;-1.35;85.73;101476.74;1706269;84;21031;-44
2021/03/01 01:32:05;;;;;;;162.50;16.15;;;;;;;-1.33;85.71;101480.22;1706283;84;21023;-45
2021/03/01 01:34:35;;;;;;;83.35;14.23;;;;;;;-1.33;85.70;101477.68;1706196;83;20971;-47
2021/03/01 01:37:04;;;;;;;63.73;13.68;;;;;;;-1.33;85.79;101482.34;1706289;83;20976;-46
2021/03/01 01:39:32;;;;;;;87.20;12.35;;;;;;;-1.32;85.85;101480.28;1706171;82;21340;-43
2021/03/01 01:42:00;;;;;;;101.27;10.95;;;;;;;-1.28;85.85;101481.69;1706375;84;20972;-43
2021/03/01 01:44:28;;;;;;;82.00;11.73;;;;;;;-1.26;85.84;101488.59;1706392;82;21042;-45
2021/03/01 01:46:55;;;;;;;101.60;11.78;;;;;;;-1.26;85.80;101492.79;1706248;84;21023;-47
2021/03/01 01:49:23;;;;;;;77.12;9.80;;;;;;;-1.27;85.79;101487.23;1706339;84;20979;-46
2021/03/01 01:51:51;;;;;;;65.55;10.13;;;;;;;-1.27;85.77;101500.83;1706278;84;21401;-44
2021/03/01 01:54:19;;;;;;;85.30;10.70;;;;;;;-1.29;85.83;101492.27;1706219;84;20968;-42
2021/03/01 01:56:49;;;;;;;81.95;12.90;;;;;;;-1.30;85.90;101493.06;1706284;83;21031;-43
2021/03/01 01:59:17;;;;;;;90.38;11.90;;;;;;;-1.29;85.90;101501.16;1706184;83;21631;-45
2021/03/01 02:01:45;;;;;;;52.43;10.32;;;;;;;-1.28;86.00;101498.20;1706348;82;21034;-43
2021/03/01 02:04:19;;;;;;;55.00;12.33;;;;;;;-1.29;85.99;101502.43;1706264;82;21432;-45
2021/03/01 02:07:06;;;;;;;62.40;10.32;;;;;;;-1.30;85.96;101505.77;1704748;82;21138;-45
2021/03/01 02:10:07;;;;;;;78.12;11.43;;;;;;;-1.31;86.03;101509.11;1645337;86;20983;-46
2021/03/01 02:12:56;;;;;;;34.40;10.13;;;;;;;-1.32;86.11;101513.72;1667615;86;21055;-45
2021/03/01 02:15:58;;;;;;;53.05;10.40;;;;;;;-1.32;86.18;101524.73;1652524;84;21604;-43
2021/03/01 02:18:26;;;;;;;51.77;9.75;;;;;;;-1.32;86.13;101527.28;1667608;86;21279;-46
2021/03/01 02:20:54;;;;;;;51.68;10.90;;;;;;;-1.32;86.22;101527.28;1667564;84;21046;-44
2021/03/01 02:23:22;;;;;;;42.43;10.32;;;;;;;-1.32;86.24;101529.82;1667680;85;20944;-45
2021/03/01 02:25:57;;;;;;;33.15;10.45;;;;;;;-1.32;86.21;101526.42;1667538;86;21064;-47
2021/03/01 02:28:27;;;;;;;;;;;;;;;-1.34;86.14;101530.56;1641633;86;21604;-45
2021/03/01 02:30:57;;;;;;;33.55;10.30;;;;;;;-1.41;86.20;101533.59;1667677;86;22288;-43
2021/03/01 02:33:31;;;;;;;37.55;10.78;;;;;;;-1.46;86.29;101535.52;1667534;86;20982;-45
2021/03/01 02:36:16;;;;;;;92.40;12.95;;;;;;;-1.46;86.32;101536.78;1667155;86;21103;-43
2021/03/01 02:38:44;;;;;;;53.75;13.18;;;;;;;-1.48;86.36;101527.37;1664700;84;21042;-47
2021/03/01 02:41:12;;;;;;;69.00;12.18;;;;;;;-1.48;86.49;101527.37;1667561;84;20948;-43
2021/03/01 02:43:40;;;;;;;51.30;11.93;;;;;;;-1.49;86.61;101525.21;1667668;86;21334;-45
2021/03/01 02:46:10;;;;;;;42.85;11.33;;;;;;;-1.49;86.66;101526.89;1667609;86;21098;-43
2021/03/01 02:48:40;;;;;;;24.85;12.15;;;;;;;-1.49;86.76;101532.83;1639513;86;21173;-44
2021/03/01 02:51:07;;;;;;;33.53;11.83;;;;;;;-1.48;87.08;101533.72;1667700;86;20984;-44
2021/03/01 02:53:37;;;;;;;31.05;11.45;;;;;;;-1.43;87.33;101537.34;1667632;86;21059;-47
2021/03/01 02:56:05;;;;;;;49.00;11.25;;;;;;;-1.39;87.38;101540.50;1639007;86;21225;-44
2021/03/01 02:58:34;;;;;;;60.78;13.28;;;;;;;-1.37;87.37;101546.94;1670334;84;21126;-42
2021/03/01 03:01:02;;;;;;;67.45;12.75;;;;;;;-1.37;87.39;101550.33;1657783;86;21020;-43
2021/03/01 03:03:31;;;;;;;73.12;12.25;;;;;;;-1.34;87.48;101557.24;1682228;85;20958;-43
2021/03/01 03:05:58;;;;;;;37.95;9.38;;;;;;;-1.32;87.48;101558.19;1672891;85;21065;-44
2021/03/01 03:08:31;;;;;;;55.63;9.88;;;;;;;-1.32;87.45;101562.84;1682269;85;21414;-44
2021/03/01 03:10:58;;;;;;;29.02;9.03;;;;;;;-1.31;87.53;101572.22;1648576;85;21101;-43
2021/03/01 03:13:26;;;;;;;36.48;9.50;;;;;;;-1.29;87.57;101578.66;1628608;86;21570;-45
2021/03/01 03:15:56;;;;;;;17.90;9.33;;;;;;;-1.25;87.60;101580.95;1682164;85;21025;-46
2021/03/01 03:18:25;;;;;;;29.25;9.68;;;;;;;-1.25;87.48;101580.54;1672954;85;20967;-42
2021/03/01 03:20:53;;;;;;;31.73;9.28;;;;;;;-1.27;87.34;101574.90;1682238;85;21261;-45
2021/03/01 03:23:21;;;;;;;26.97;9.25;;;;;;;-1.30;87.29;101580.73;1672941;85;21030;-43
2021/03/01 03:25:48;;;;;;;31.48;10.00;;;;;;;-1.33;87.28;101590.74;1682190;85;21073;-45
2021/03/01 03:28:16;;;;;;;38.28;9.35;;;;;;;-1.38;87.26;101592.20;1672942;85;21080;-45
2021/03/01 03:30:44;;;;;;;28.75;10.80;;;;;;;-1.41;87.34;101599.25;1682252;85;21042;-46
2021/03/01 03:33:12;;;;;;;25.55;9.70;;;;;;;-1.42;87.30;101600.44;1672944;85;21381;-44
2021/03/01 03:35:40;;;;;;;23.25;10.70;;;;;;;-1.46;87.32;101607.91;1653114;86;21114;-41
2021/03/01 03:38:13;;;;;;;27.30;10.45;;;;;;;-1.48;87.40;101608.23;1682201;85;20970;-44
2021/03/01 03:40:42;;;;;;;24.85;10.70;;;;;;;-1.50;87.54;101600.09;1672350;84;20966;-44
2021/03/01 03:43:12;;;;;;;26.30;10.35;;;;;;;-1.50;87.56;101606.44;1656968;85;20984;-44
2021/03/01 03:45:41;;;;;;;22.30;10.93;;;;;;;-1.50;87.54;101604.75;1648251;85;21410;-47
2021/03/01 03:48:11;;;;;;;25.30;10.82;;;;;;;-1.53;87.55;101603.33;1682368;85;21583;-44
2021/03/01 03:50:39;;;;;;;27.25;10.45;;;;;;;-1.53;87.66;101599.52;1648083;85;21157;-44
2021/03/01 03:53:10;;;;;;;21.87;10.18;;;;;;;-1.51;87.67;101604.28;1628974;86;21619;-43
2021/03/01 03:55:40;;;;;;;21.57;11.22;;;;;;;-1.50;87.64;101612.78;1657070;84;20962;-43
2021/03/01 03:58:11;;;;;;;18.85;10.88;;;;;;;-1.51;87.70;101611.89;1672936;84;22276;-45
2021/03/01 04:00:38;;;;;;;24.25;10.65;;;;;;;-1.50;87.76;101616.18;1653134;86;21101;-43
2021/03/01 04:03:12;;;;;;;23.98;11.03;;;;;;;-1.45;87.80;101619.81;1672913;85;21356;-42
2021/03/01 04:05:41;;;;;;;19.25;10.43;;;;;;;-1.42;87.78;101616.95;1653139;85;21014;-45
2021/03/01 04:08:12;;;;;;;22.55;10.48;;;;;;;-1.42;87.67;101626.73;1672910;85;20972;-43
2021/03/01 04:10:43;;;;;;;23.22;10.13;;;;;;;-1.39;87.64;101631.06;1682203;85;21382;-45
2021/03/01 04:13:13;;;;;;;25.68;11.40;;;;;;;-1.40;87.55;101630.21;1672910;85;21139;-46
2021/03/01 04:15:42;;;;;;;18.45;10.65;;;;;;;-1.39;87.62;101630.69;1682143;85;20962;-44
2021/03/01 04:18:10;;;;;;;23.92;11.18;;;;;;;-1.37;87.57;101625.70;1672907;85;21595;-44
2021/03/01 04:20:38;;;;;;;26.40;10.88;;;;;;;-1.36;87.57;101633.37;1657669;86;21016;-43
2021/03/01 04:23:08;;;;;;;26.15;11.08;;;;;;;-1.35;87.55;101633.84;1653212;86;21521;-45
2021/03/01 04:25:35;;;;;;;18.42;10.20;;;;;;;-1.33;87.52;101642.41;1670259;85;21038;-43
2021/03/01 04:28:03;;;;;;;16.95;9.73;;;;;;;-1.31;87.51;101648.86;1653187;86;21097;-43
2021/03/01 04:30:31;;;;;;;13.93;9.25;;;;;;;-1.30;87.51;101649.33;1672815;85;21122;-45
2021/03/01 04:32:59;;;;;;;13.55;9.10;;;;;;;-1.30;87.43;101660.34;1656857;85;21057;-45
2021/03/01 04:35:27;;;;;;;42.95;10.75;;;;;;;-1.32;87.41;101658.55;1672858;85;21422;-46
2021/03/01 04:37:55;;;;;;;19.60;11.20;;;;;;;-1.34;87.37;101659.73;1682128;85;20982;-44
2021/03/01 04:40:23;;;;;;;16.50;9.85;;;;;;;-1.37;87.35;101662.12;1672854;84;21185;-44
2021/03/01 04:42:51;;;;;;;19.70;10.25;;;;;;;-1.36;87.45;101661.73;1657691;86;21031;-47
2021/03/01 04:45:19;;;;;;;18.23;10.20;;;;;;;-1.34;87.59;101663.95;1653127;86;20975;-45
2021/03/01 04:47:49;;;;;;;19.05;10.65;;;;;;;-1.31;87.59;101662.83;1647907;85;21086;-46
2021/03/01 04:50:18;;;;;;;15.60;9.53;;;;;;;-1.28;87.51;101664.25;1655970;86;20999;-46
2021/03/01 04:52:46;;;;;;;25.27;10.63;;;;;;;-1.26;87.58;101665.19;1653235;85;20994;-46
2021/03/01 04:55:14;;;;;;;18.82;9.75;;;;;;;-1.24;87.56;101662.33;1672826;85;21039;-43
2021/03/01 04:57:42;;;;;;;16.90;10.15;;;;;;;-1.19;87.49;101667.65;1682261;85;21030;-46
2021/03/01 05:00:12;;;;;;;14.90;9.73;;;;;;;-1.16;87.43;101672.46;1672851;84;21489;-45
2021/03/01 05:02:40;;;;;;;17.45;9.25;;;;;;;-1.13;87.40;101681.06;1653090;86;20935;-45
2021/03/01 05:05:10;;;;;;;15.00;9.75;;;;;;;-1.13;87.32;101681.92;1672904;85;21043;-44
2021/03/01 05:07:38;;;;;;;32.40;11.88;;;;;;;-1.11;87.16;101701.07;1653127;86;21034;-42
2021/03/01 05:12:51;;;;;;;21.30;11.50;;;;;;;-1.09;87.22;101704.56;1777066;79;22679;-44
2021/03/01 05:15:19;;;;;;;21.82;11.73;;;;;;;-1.15;87.21;101711.47;1749511;81;21038;-45
2021/03/01 05:17:47;;;;;;;36.15;15.50;;;;;;;-1.14;87.20;101713.59;1749418;82;21205;-43
2021/03/01 05:20:16;;;;;;;37.10;22.95;;;;;;;-1.13;87.20;101725.54;1749402;82;20971;-43
2021/03/01 05:22:44;;;;;;;50.35;30.02;;;;;;;-1.13;87.24;101726.40;1749529;81;21612;-42
2021/03/01 05:25:13;;;;;;;40.73;22.22;;;;;;;-1.12;87.33;101730.69;1749402;82;20978;-43
2021/03/01 05:27:41;;;;;;;26.45;14.75;;;;;;;-1.09;87.37;101740.14;1749506;82;21192;-44
2021/03/01 05:30:11;;;;;;;24.37;13.60;;;;;;;-1.06;87.34;101737.75;1749507;82;21392;-43
2021/03/01 05:32:38;;;;;;;29.15;14.85;;;;;;;-1.05;87.33;101728.05;1749371;81;20975;-43
2021/03/01 05:35:08;;;;;;;25.85;14.15;;;;;;;-1.04;87.34;101731.07;1749449;82;21488;-44
2021/03/01 05:37:35;;;;;;;25.77;13.75;;;;;;;-1.01;87.30;101733.77;1749426;81;21109;-45
2021/03/01 05:40:06;;;;;;;23.27;13.38;;;;;;;-0.96;87.28;101734.85;1742758;82;21081;-45
2021/03/01 05:42:35;;;;;;;31.27;15.15;;;;;;;-0.94;87.27;101747.24;1719726;83;22275;-44
2021/03/01 05:45:05;;;;;;;29.65;15.70;;;;;;;-0.92;87.22;101752.00;1719583;83;21031;-45
2021/03/01 05:47:35;;;;;;;26.45;14.73;;;;;;;-0.88;87.21;101755.58;1719701;83;20959;-43
2021/03/01 05:50:06;;;;;;;28.47;14.58;;;;;;;-0.84;87.16;101758.74;1719588;82;21169;-43
2021/03/01 05:52:34;;;;;;;27.82;14.90;;;;;;;-0.79;87.19;101764.06;1719604;82;21396;-44
2021/03/01 05:55:05;;;;;;;30.32;14.80;;;;;;;-0.76;87.15;101765.48;1691637;83;21370;-43
2021/03/01 05:57:33;;;;;;;34.78;15.78;;;;;;;-0.73;86.99;101763.97;1719550;83;21074;-44
2021/03/01 06:00:01;;;;;;;30.15;15.35;;;;;;;-0.70;86.90;101765.77;1719592;83;21030;-45
2021/03/01 06:02:30;;;;;;;28.47;14.90;;;;;;;-0.68;86.83;101766.72;1719494;82;20947;-45
2021/03/01 06:04:58;;;;;;;32.33;15.25;;;;;;;-0.66;86.80;101769.35;1691557;83;21018;-45
2021/03/01 06:07:26;;;;;;;22.95;14.40;;;;;;;-0.65;86.77;101771.95;1691449;83;21224;-45
2021/03/01 06:09:54;;;;;;;23.62;13.93;;;;;;;-0.63;86.72;101774.20;1719548;83;21067;-44
2021/03/01 06:12:21;;;;;;;26.33;14.03;;;;;;;-0.59;86.64;101776.09;1720014;83;21093;-44
2021/03/01 06:14:49;;;;;;;26.10;12.78;;;;;;;-0.55;86.63;101780.05;1720340;83;21033;-44
2021/03/01 06:17:20;;;;;;;23.75;13.32;;;;;;;-0.52;86.60;101782.73;1693888;83;21109;-45
2021/03/01 06:19:56;;;;;;;18.90;11.93;;;;;;;-0.48;86.44;101779.16;1720336;83;21464;-45
2021/03/01 06:22:42;;;;;;;24.95;13.58;;;;;;;-0.44;86.40;101777.61;1720184;83;21050;-44
2021/03/01 06:25:17;;;;;;;16.07;10.15;;;;;;;-0.42;86.39;101789.15;1719959;83;21014;-45
2021/03/01 06:27:50;;;;;;;24.23;12.88;;;;;;;-0.41;86.35;101796.84;1719911;83;21608;-43
2021/03/01 06:30:27;;;;;;;27.05;13.95;;;;;;;-0.36;86.24;101799.61;1719879;83;21014;-44
2021/03/01 06:33:22;;;;;;;28.38;13.18;;;;;;;-0.31;86.11;101800.70;1719560;83;21392;-46
2021/03/01 06:35:49;;;;;;;20.77;12.23;;;;;;;-0.25;86.15;101802.67;1719448;83;21054;-43
2021/03/01 06:38:31;;;;;;;22.45;12.18;;;;;;;-0.18;86.12;101808.52;1719798;83;21148;-45
2021/03/01 06:41:17;;;;;;;22.95;12.05;;;;;;;-0.13;85.93;101808.75;1719837;82;21143;-46
2021/03/01 06:43:59;;;;;;;20.37;11.50;;;;;;;-0.08;85.77;101812.38;1720041;83;21030;-43
2021/03/01 06:46:30;;;;;;;22.93;13.20;;;;;;;-0.02;85.64;101819.91;1719870;83;21382;-43
2021/03/01 06:49:13;;;;;;;25.80;14.07;;;;;;;0.04;85.53;101826.97;1719788;83;21038;-42
2021/03/01 06:51:42;;;;;;;26.68;14.70;;;;;;;0.07;85.41;101829.66;1719091;83;21019;-45
2021/03/01 06:54:14;;;;;;;31.80;14.50;;;;;;;0.14;85.31;101828.28;1719809;83;20955;-43
2021/03/01 06:56:43;;;;;;;26.97;13.58;;;;;;;0.19;85.12;101834.45;1718924;83;20967;-43
2021/03/01 06:59:17;;;;;;;27.17;14.55;;;;;;;0.22;84.99;101839.69;1719862;83;22272;-47
2021/03/01 07:01:53;;;;;;;37.28;17.57;;;;;;;0.26;84.86;101836.89;1719765;83;21054;-43
2021/03/01 07:04:26;;;;;;;27.10;14.40;;;;;;;0.30;84.76;101843.86;1719788;83;20987;-45
2021/03/01 07:06:55;;;;;;;27.62;13.20;;;;;;;0.36;84.61;101843.25;1719722;83;21031;-46
2021/03/01 07:09:26;;;;;;;27.30;11.78;;;;;;;0.41;84.45;101847.77;1719817;83;21022;-46
2021/03/01 07:11:54;;;;;;;22.27;12.03;;;;;;;0.45;84.27;101846.23;1719581;83;21381;-43
2021/03/01 07:14:24;;;;;;;17.75;10.95;;;;;;;0.50;84.16;101852.41;1719708;83;21097;-46
2021/03/01 07:16:55;;;;;;;21.55;11.88;;;;;;;0.53;84.02;101850.00;1719841;82;20931;-43
2021/03/01 07:19:30;;;;;;;20.55;11.50;;;;;;;0.59;83.74;101851.07;1719260;83;20974;-45
2021/03/01 07:22:03;;;;;;;16.65;10.72;;;;;;;0.63;83.59;101854.22;1719986;83;21117;-46
2021/03/01 07:24:32;;;;;;;23.27;13.35;;;;;;;0.66;83.47;101856.52;1719832;83;21379;-43
2021/03/01 07:27:02;;;;;;;20.20;12.70;;;;;;;0.69;83.37;101860.47;1719745;83;20951;-45
2021/03/01 07:29:37;;;;;;;23.18;13.78;;;;;;;0.77;83.14;101866.34;1719794;83;20991;-45
2021/03/01 07:32:08;;;;;;;24.27;13.53;;;;;;;0.81;82.96;101870.34;1719880;83;21029;-47
2021/03/01 07:34:36;;;;;;;22.58;13.45;;;;;;;0.90;82.70;101874.98;1719787;83;21576;-46
2021/03/01 07:37:05;;;;;;;24.80;14.78;;;;;;;0.97;82.55;101882.52;1719794;83;22368;-44
2021/03/01 07:39:34;;;;;;;24.98;13.85;;;;;;;1.02;82.41;101876.34;1719704;82;21034;-43
2021/03/01 07:42:01;;;;;;;23.57;12.98;;;;;;;1.08;82.19;101881.28;1719793;83;20943;-44
2021/03/01 07:44:32;;;;;;;15.58;11.63;;;;;;;1.14;81.98;101887.95;1719784;83;21619;-44
2021/03/01 07:47:02;;;;;;;15.75;10.35;;;;;;;1.20;81.64;101893.70;1719760;83;20951;-45
2021/03/01 07:49:47;;;;;;;20.12;12.58;;;;;;;1.21;81.43;101895.86;1693283;83;21383;-45
2021/03/01 07:52:26;;;;;;;19.50;10.50;;;;;;;1.25;81.34;101896.46;1719743;82;21058;-45
2021/03/01 07:54:57;;;;;;;19.20;11.28;;;;;;;1.26;81.01;101898.20;1719699;82;21102;-46
2021/03/01 07:57:27;;;;;;;18.27;11.15;;;;;;;1.28;80.92;101896.20;1719751;83;21058;-44
2021/03/01 07:59:57;;;;;;;38.75;10.72;;;;;;;1.34;80.57;101895.98;1719852;83;21552;-44
2021/03/01 08:02:28;;;;;;;23.25;11.15;;;;;;;1.36;80.32;101902.03;1719735;83;21366;-45
2021/03/01 08:04:58;;;;;;;19.50;10.32;;;;;;;1.39;80.30;101900.48;1719682;83;21102;-42
2021/03/01 08:07:41;;;;;;;15.60;9.40;;;;;;;1.42;79.71;101906.11;1719747;82;21047;-44
2021/03/01 08:10:18;;;;;;;13.32;8.83;;;;;;;1.41;79.39;101905.25;1719811;83;21433;-44
2021/03/01 08:12:54;;;;;;;15.20;7.97;;;;;;;1.46;79.09;101910.53;1715780;83;21019;-46
2021/03/01 08:15:24;;;;;;;12.75;8.00;;;;;;;1.49;78.76;101913.20;1719825;83;22284;-44
2021/03/01 08:17:52;;;;;;;13.95;8.58;;;;;;;1.49;78.44;101918.31;1719749;83;21536;-44
2021/03/01 08:20:28;;;;;;;12.65;8.05;;;;;;;1.50;78.29;101922.61;1719745;83;21021;-44
2021/03/01 08:23:08;;;;;;;9.80;6.65;;;;;;;1.53;77.70;101925.70;1719877;83;21031;-44
2021/03/01 08:25:51;;;;;;;8.03;6.00;;;;;;;1.55;77.30;101922.42;1719068;83;21030;-43
2021/03/01 08:28:32;;;;;;;9.43;6.53;;;;;;;1.57;77.01;101928.47;1719829;83;22392;-46
2021/03/01 08:31:12;;;;;;;10.65;6.90;;;;;;;1.58;76.69;101936.59;1719670;83;21061;-43
2021/03/01 08:33:40;;;;;;;11.63;7.20;;;;;;;1.58;76.56;101935.70;1719692;83;21011;-45
2021/03/01 08:36:18;;;;;;;10.93;7.15;;;;;;;1.63;76.44;101938.46;1716803;83;21070;-47
2021/03/01 08:38:56;;;;;;;7.72;5.67;;;;;;;1.71;76.41;101944.75;1719751;83;20963;-45
2021/03/01 08:41:34;;;;;;;;;;;;;;;1.79;75.83;101945.08;1721841;82;21401;-43
2021/03/01 08:44:03;;;;;;;7.92;5.40;;;;;;;1.78;74.58;101949.72;1719739;83;20496;-43
2021/03/01 08:46:31;;;;;;;6.30;5.22;;;;;;;1.77;74.79;101950.53;1670687;83;21030;-47
2021/03/01 08:48:59;;;;;;;6.05;5.12;;;;;;;1.79;74.61;101954.02;1719648;83;21026;-45
2021/03/01 08:51:28;;;;;;;6.83;5.45;;;;;;;1.82;74.12;101952.86;1719694;83;21074;-44
2021/03/01 08:53:55;;;;;;;5.50;4.95;;;;;;;1.84;73.79;101962.73;1719713;83;21150;-45
2021/03/01 08:56:27;;;;;;;4.67;4.22;;;;;;;1.90;73.67;101959.57;1719706;83;21014;-46
2021/03/01 08:58:54;;;;;;;7.60;4.90;;;;;;;1.95;73.37;101965.34;1719832;83;21448;-46
2021/03/01 09:01:22;;;;;;;4.70;4.20;;;;;;;1.95;72.16;101967.02;1719675;83;20951;-47
2021/03/01 09:03:51;;;;;;;4.50;3.80;;;;;;;1.96;72.16;101968.76;1719788;83;21073;-44
2021/03/01 09:06:23;;;;;;;4.08;3.65;;;;;;;2.03;71.81;101975.00;1719731;82;21373;-44
2021/03/01 09:08:53;;;;;;;4.87;3.77;;;;;;;2.01;71.52;101973.25;1719693;83;20971;-44
2021/03/01 09:11:30;;;;;;;4.40;3.47;;;;;;;2.05;71.79;101973.38;1719720;83;21046;-47
2021/03/01 09:14:05;;;;;;;4.65;3.83;;;;;;;2.14;71.70;101973.73;1707164;83;21051;-44
2021/03/01 09:16:35;;;;;;;;;;;;;;;2.17;71.37;101975.17;1708849;84;20993;-43
2021/03/01 09:19:08;;;;;;;4.37;3.60;;;;;;;2.21;71.02;101984.70;1706080;83;21384;-44
2021/03/01 09:21:40;;;;;;;4.92;3.62;;;;;;;2.31;70.50;101982.11;1706005;82;21055;-44
2021/03/01 09:24:11;;;;;;;3.33;3.12;;;;;;;2.38;70.29;101976.81;1706254;82;20975;-46
2021/03/01 09:26:41;;;;;;;5.83;3.83;;;;;;;2.43;69.50;101977.47;1706238;83;21497;-43
2021/03/01 09:29:14;;;;;;;3.87;3.58;;;;;;;2.46;67.83;101975.45;1706132;84;21087;-44
2021/03/01 09:31:49;;;;;;;4.20;3.77;;;;;;;2.51;67.61;101984.56;1706207;84;22269;-46
2021/03/01 09:34:18;;;;;;;;;;;;;;;2.50;66.76;101979.88;1708726;83;21583;-46
2021/03/01 09:36:48;;;;;;;4.00;3.17;;;;;;;2.62;66.97;101978.20;1703290;84;20180;-47
2021/03/01 09:39:25;;;;;;;2.50;2.30;;;;;;;2.76;65.62;101979.13;1706202;84;21023;-44
2021/03/01 09:41:54;;;;;;;3.65;2.58;;;;;;;2.85;64.93;101983.33;1706164;82;20932;-43
2021/03/01 09:44:28;;;;;;;2.60;2.35;;;;;;;2.92;63.09;101979.33;1706217;84;22286;-47
2021/03/01 09:46:56;;;;;;;2.12;1.92;;;;;;;2.96;61.91;101987.15;1706134;83;21102;-44
2021/03/01 09:49:26;;;;;;;2.58;1.85;;;;;;;2.93;62.24;101987.46;1706175;84;21629;-47
2021/03/01 09:51:54;;;;;;;2.50;2.30;;;;;;;3.07;62.49;101991.39;1706113;84;21075;-47
2021/03/01 09:54:23;;;;;;;2.42;2.27;;;;;;;3.25;61.23;101992.47;1706143;84;20976;-46
2021/03/01 09:56:53;;;;;;;4.83;2.20;;;;;;;3.28;61.94;101992.61;1706098;84;22415;-48
2021/03/01 09:59:40;;;;;;;3.08;2.77;;;;;;;3.45;61.67;101984.25;1706257;83;21015;-46
2021/03/01 10:02:17;;;;;;;2.27;2.10;;;;;;;3.66;61.59;101987.50;1706341;84;20997;-42
2021/03/01 10:04:46;;;;;;;4.40;2.00;;;;;;;3.87;60.94;101981.83;1706365;84;21564;-44
2021/03/01 10:07:26;;;;;;;1.40;1.30;;;;;;;3.86;55.79;101985.22;1703283;84;21021;-44
2021/03/01 10:09:56;;;;;;;1.22;1.05;;;;;;;3.86;55.79;101985.22;1706337;84;22291;-44
2021/03/01 10:12:24;;;;;;;1.80;1.47;;;;;;;3.72;55.60;101987.30;1708255;83;21648;-44
2021/03/01 10:14:57;;;;;;;1.98;1.87;;;;;;;3.70;56.69;101989.34;1719869;83;21058;-43
2021/03/01 10:17:30;;;;;;;2.22;2.02;;;;;;;3.86;57.34;101985.22;1719886;83;21638;-42
2021/03/01 10:20:10;;;;;;;3.90;2.30;;;;;;;3.98;57.67;101984.75;1719810;83;21082;-43
2021/03/01 10:23:03;;;;;;;3.35;2.12;;;;;;;4.03;55.62;101989.62;1693434;83;21472;-45
2021/03/01 10:25:40;;;;;;;1.85;1.75;;;;;;;3.84;56.28;101989.81;1719747;83;21058;-45
2021/03/01 10:28:31;;;;;;;2.65;1.80;;;;;;;3.78;56.93;101986.63;1719801;83;20955;-44
2021/03/01 10:31:05;;;;;;;1.80;1.70;;;;;;;3.83;57.32;101980.38;1719792;83;21050;-43
2021/03/01 10:33:57;;;;;;;2.37;1.87;;;;;;;3.94;57.24;101984.20;1719790;83;21010;-44
2021/03/01 10:36:32;;;;;;;1.87;1.47;;;;;;;3.97;56.04;101980.45;1719779;82;21365;-44
2021/03/01 10:39:02;;;;;;;1.60;1.50;;;;;;;4.14;56.42;101989.97;1719775;83;21047;-45
2021/03/01 10:41:34;;;;;;;1.55;1.45;;;;;;;4.36;56.00;101985.94;1719337;82;21066;-45
2021/03/01 10:44:06;;;;;;;1.37;1.27;;;;;;;4.58;55.12;101978.52;1717631;83;20959;-46
2021/03/01 10:46:42;;;;;;;4.42;1.50;;;;;;;4.74;54.02;101984.98;1719853;83;21054;-44
2021/03/01 10:49:28;;;;;;;2.35;1.27;;;;;;;4.79;53.83;101987.67;1719778;83;21399;-46
2021/03/01 10:51:58;;;;;;;1.60;1.50;;;;;;;4.74;53.80;101983.27;1719756;83;21181;-47
2021/03/01 10:54:27;;;;;;;7.00;1.90;;;;;;;4.75;52.32;101972.61;1719771;83;21018;-45
2021/03/01 10:56:55;;;;;;;2.22;1.55;;;;;;;4.49;53.25;101979.10;1719755;83;21138;-46
2021/03/01 10:59:23;;;;;;;1.87;1.60;;;;;;;4.39;54.55;101980.90;1719878;83;21075;-46
2021/03/01 11:01:51;;;;;;;1.80;1.70;;;;;;;4.45;54.54;101983.68;1719847;83;21210;-46
2021/03/01 11:04:20;;;;;;;2.65;2.00;;;;;;;4.66;55.29;101979.62;1719652;83;20927;-44
2021/03/01 11:06:48;;;;;;;2.67;1.60;;;;;;;4.96;53.96;101976.22;1719811;83;21022;-46
2021/03/01 11:09:19;;;;;;;2.65;2.05;;;;;;;4.67;53.62;101970.20;1719868;83;21615;-46
2021/03/01 11:11:49;;;;;;;1.60;1.50;;;;;;;4.54;54.32;101984.36;1719879;83;20999;-45
2021/03/01 11:14:17;;;;;;;1.70;1.60;;;;;;;4.54;54.32;101984.36;1709067;83;21382;-47
2021/03/01 11:16:46;;;;;;;2.52;2.30;;;;;;;4.41;54.77;101980.14;1706197;84;20992;-46
2021/03/01 11:19:15;;;;;;;1.82;1.70;;;;;;;4.39;55.26;101992.05;1706278;83;21059;-45
2021/03/01 11:21:43;;;;;;;3.50;2.58;;;;;;;4.16;56.08;102002.82;1706229;84;20995;-44
2021/03/01 11:24:12;;;;;;;1.90;1.80;;;;;;;4.16;56.08;102002.82;1706324;83;20944;-45
2021/03/01 11:26:41;;;;;;;2.17;2.00;;;;;;;3.93;57.01;101992.70;1706297;83;21386;-45
2021/03/01 11:29:09;;;;;;;1.60;1.50;;;;;;;3.87;57.68;101997.20;1706218;84;21011;-44
2021/03/01 11:31:37;;;;;;;2.92;1.72;;;;;;;3.87;57.44;102002.33;1706329;84;20999;-45
2021/03/01 11:34:09;;;;;;;1.60;1.50;;;;;;;3.72;57.07;102003.95;1706237;82;21608;-43
2021/03/01 11:36:37;;;;;;;1.40;1.30;;;;;;;3.72;57.07;102003.95;1706317;83;21078;-44
2021/03/01 11:39:07;;;;;;;1.52;1.42;;;;;;;3.69;57.79;101996.17;1706332;84;21508;-47